sensor_id;sensor_type;location;lat;lon;timestamp;P1;durP1;ratioP1;P2;durP2;ratioP2
35971;SDS011;22052;0.000;0.000;2023-02-17T00:01:19;11.88;;;3.35;;
35971;SDS011;22052;0.000;0.000;2023-02-17T00:03:46;8.85;;;3.13;;
35971;SDS011;22052;0.000;0.000;2023-02-17T00:06:14;7.07;;;2.92;;
35971;SDS011;22052;0.000;0.000;2023-02-17T00:08:41;9.85;;;2.78;;
35971;SDS011;22052;0.000;0.000;2023-02-17T00:11:07;10.63;;;3.10;;
35971;SDS011;22052;0.000;0.000;2023-02-17T00:13:33;8.98;;;3.38;;
35971;SDS011;22052;0.000;0.000;2023-02-17T00:16:04;7.72;;;3.00;;
35971;SDS011;22052;0.000;0.000;2023-02-17T00:18:30;7.20;;;2.83;;
35971;SDS011;22052;0.000;0.000;2023-02-17T00:20:57;7.05;;;3.20;;
35971;SDS011;22052;0.000;0.000;2023-02-17T00:23:23;8.38;;;3.05;;
35971;SDS011;22052;0.000;0.000;2023-02-17T00:25:49;5.93;;;2.78;;
35971;SDS011;22052;0.000;0.000;2023-02-17T00:28:15;5.45;;;2.65;;
35971;SDS011;22052;0.000;0.000;2023-02-17T00:30:41;10.65;;;3.15;;
35971;SDS011;22052;0.000;0.000;2023-02-17T00:33:07;8.10;;;2.95;;
35971;SDS011;22052;0.000;0.000;2023-02-17T00:35:37;7.55;;;2.80;;
35971;SDS011;22052;0.000;0.000;2023-02-17T00:38:03;8.70;;;2.88;;
35971;SDS011;22052;0.000;0.000;2023-02-17T00:40:29;7.75;;;2.90;;
35971;SDS011;22052;0.000;0.000;2023-02-17T00:42:56;5.57;;;2.80;;
35971;SDS011;22052;0.000;0.000;2023-02-17T00:45:22;5.43;;;2.53;;
35971;SDS011;22052;0.000;0.000;2023-02-17T00:47:48;6.70;;;2.60;;
35971;SDS011;22052;0.000;0.000;2023-02-17T00:50:14;8.27;;;2.92;;
35971;SDS011;22052;0.000;0.000;2023-02-17T00:52:40;6.75;;;2.70;;
35971;SDS011;22052;0.000;0.000;2023-02-17T00:55:07;6.57;;;2.90;;
35971;SDS011;22052;0.000;0.000;2023-02-17T00:57:33;7.30;;;2.72;;
35971;SDS011;22052;0.000;0.000;2023-02-17T00:59:59;7.93;;;2.95;;
35971;SDS011;22052;0.000;0.000;2023-02-17T01:02:25;5.55;;;2.80;;
35971;SDS011;22052;0.000;0.000;2023-02-17T01:04:52;7.72;;;2.67;;
35971;SDS011;22052;0.000;0.000;2023-02-17T01:07:18;6.65;;;2.67;;
35971;SDS011;22052;0.000;0.000;2023-02-17T01:09:44;6.75;;;2.47;;
35971;SDS011;22052;0.000;0.000;2023-02-17T01:12:11;5.55;;;2.55;;
35971;SDS011;22052;0.000;0.000;2023-02-17T01:14:37;6.63;;;2.53;;
35971;SDS011;22052;0.000;0.000;2023-02-17T01:17:03;5.70;;;2.72;;
35971;SDS011;22052;0.000;0.000;2023-02-17T01:19:29;6.18;;;2.67;;
35971;SDS011;22052;0.000;0.000;2023-02-17T01:21:56;5.50;;;2.80;;
35971;SDS011;22052;0.000;0.000;2023-02-17T01:24:22;4.68;;;2.50;;
35971;SDS011;22052;0.000;0.000;2023-02-17T01:26:48;5.18;;;2.58;;
35971;SDS011;22052;0.000;0.000;2023-02-17T01:29:14;9.35;;;3.30;;
35971;SDS011;22052;0.000;0.000;2023-02-17T01:31:40;6.10;;;2.70;;
35971;SDS011;22052;0.000;0.000;2023-02-17T01:34:06;6.45;;;2.75;;
35971;SDS011;22052;0.000;0.000;2023-02-17T01:36:32;5.85;;;2.70;;
35971;SDS011;22052;0.000;0.000;2023-02-17T01:38:59;5.47;;;2.50;;
35971;SDS011;22052;0.000;0.000;2023-02-17T01:41:25;5.68;;;2.70;;
35971;SDS011;22052;0.000;0.000;2023-02-17T01:44:05;5.05;;;2.47;;
35971;SDS011;22052;0.000;0.000;2023-02-17T01:46:32;4.80;;;2.25;;
35971;SDS011;22052;0.000;0.000;2023-02-17T01:48:58;6.07;;;2.65;;
35971;SDS011;22052;0.000;0.000;2023-02-17T01:51:26;7.50;;;2.75;;
35971;SDS011;22052;0.000;0.000;2023-02-17T01:54:04;7.35;;;2.50;;
35971;SDS011;22052;0.000;0.000;2023-02-17T01:56:32;5.32;;;2.40;;
35971;SDS011;22052;0.000;0.000;2023-02-17T01:59:00;6.38;;;2.75;;
35971;SDS011;22052;0.000;0.000;2023-02-17T02:01:27;4.55;;;2.25;;
35971;SDS011;22052;0.000;0.000;2023-02-17T02:03:54;7.13;;;2.45;;
35971;SDS011;22052;0.000;0.000;2023-02-17T02:06:22;7.28;;;2.70;;
35971;SDS011;22052;0.000;0.000;2023-02-17T02:08:55;4.40;;;2.20;;
35971;SDS011;22052;0.000;0.000;2023-02-17T02:11:21;5.57;;;2.60;;
35971;SDS011;22052;0.000;0.000;2023-02-17T02:13:48;5.82;;;2.45;;
35971;SDS011;22052;0.000;0.000;2023-02-17T02:16:19;5.75;;;2.42;;
35971;SDS011;22052;0.000;0.000;2023-02-17T02:18:53;7.45;;;2.47;;
35971;SDS011;22052;0.000;0.000;2023-02-17T02:31:50;4.88;;;2.33;;
35971;SDS011;22052;0.000;0.000;2023-02-17T02:34:21;4.53;;;2.10;;
35971;SDS011;22052;0.000;0.000;2023-02-17T02:36:49;4.47;;;2.20;;
35971;SDS011;22052;0.000;0.000;2023-02-17T02:39:18;6.93;;;2.50;;
35971;SDS011;22052;0.000;0.000;2023-02-17T02:41:46;3.78;;;2.10;;
35971;SDS011;22052;0.000;0.000;2023-02-17T02:44:14;4.78;;;2.45;;
35971;SDS011;22052;0.000;0.000;2023-02-17T02:46:41;4.45;;;2.42;;
35971;SDS011;22052;0.000;0.000;2023-02-17T02:49:07;4.00;;;2.15;;
35971;SDS011;22052;0.000;0.000;2023-02-17T02:56:45;4.13;;;2.22;;
35971;SDS011;22052;0.000;0.000;2023-02-17T03:02:02;4.20;;;1.95;;
35971;SDS011;22052;0.000;0.000;2023-02-17T03:07:26;4.25;;;2.25;;
35971;SDS011;22052;0.000;0.000;2023-02-17T03:09:53;4.85;;;2.13;;
35971;SDS011;22052;0.000;0.000;2023-02-17T03:12:21;4.03;;;2.25;;
35971;SDS011;22052;0.000;0.000;2023-02-17T03:14:48;4.28;;;2.25;;
35971;SDS011;22052;0.000;0.000;2023-02-17T03:17:15;5.05;;;2.38;;
35971;SDS011;22052;0.000;0.000;2023-02-17T03:19:41;4.55;;;2.17;;
35971;SDS011;22052;0.000;0.000;2023-02-17T03:24:38;3.35;;;1.80;;
35971;SDS011;22052;0.000;0.000;2023-02-17T03:27:05;4.15;;;1.90;;
35971;SDS011;22052;0.000;0.000;2023-02-17T03:29:31;3.72;;;2.08;;
35971;SDS011;22052;0.000;0.000;2023-02-17T03:31:57;4.57;;;1.90;;
35971;SDS011;22052;0.000;0.000;2023-02-17T03:34:23;2.88;;;1.80;;
35971;SDS011;22052;0.000;0.000;2023-02-17T03:36:49;3.15;;;1.90;;
35971;SDS011;22052;0.000;0.000;2023-02-17T03:39:16;4.93;;;2.20;;
35971;SDS011;22052;0.000;0.000;2023-02-17T03:41:42;3.72;;;1.90;;
35971;SDS011;22052;0.000;0.000;2023-02-17T03:44:08;4.65;;;2.40;;
35971;SDS011;22052;0.000;0.000;2023-02-17T03:46:34;4.32;;;1.80;;
35971;SDS011;22052;0.000;0.000;2023-02-17T03:49:03;3.70;;;2.20;;
35971;SDS011;22052;0.000;0.000;2023-02-17T03:51:29;3.20;;;1.88;;
35971;SDS011;22052;0.000;0.000;2023-02-17T03:53:55;3.92;;;1.85;;
35971;SDS011;22052;0.000;0.000;2023-02-17T03:56:22;3.03;;;1.60;;
35971;SDS011;22052;0.000;0.000;2023-02-17T03:58:48;3.53;;;2.05;;
35971;SDS011;22052;0.000;0.000;2023-02-17T04:01:14;5.40;;;1.90;;
35971;SDS011;22052;0.000;0.000;2023-02-17T04:03:40;3.58;;;1.75;;
35971;SDS011;22052;0.000;0.000;2023-02-17T04:06:07;3.40;;;1.90;;
35971;SDS011;22052;0.000;0.000;2023-02-17T04:08:34;4.28;;;2.05;;
35971;SDS011;22052;0.000;0.000;2023-02-17T04:11:01;3.88;;;1.55;;
35971;SDS011;22052;0.000;0.000;2023-02-17T04:13:27;3.97;;;2.38;;
35971;SDS011;22052;0.000;0.000;2023-02-17T04:15:54;3.17;;;1.73;;
35971;SDS011;22052;0.000;0.000;2023-02-17T04:18:20;2.67;;;1.42;;
35971;SDS011;22052;0.000;0.000;2023-02-17T04:20:47;3.63;;;1.80;;
35971;SDS011;22052;0.000;0.000;2023-02-17T04:23:14;2.85;;;1.70;;
35971;SDS011;22052;0.000;0.000;2023-02-17T04:25:40;3.25;;;1.90;;
35971;SDS011;22052;0.000;0.000;2023-02-17T04:28:07;2.70;;;1.58;;
35971;SDS011;22052;0.000;0.000;2023-02-17T04:30:33;3.10;;;1.80;;
35971;SDS011;22052;0.000;0.000;2023-02-17T04:33:00;2.65;;;1.70;;
35971;SDS011;22052;0.000;0.000;2023-02-17T04:35:27;4.93;;;1.90;;
35971;SDS011;22052;0.000;0.000;2023-02-17T04:37:53;3.88;;;1.88;;
35971;SDS011;22052;0.000;0.000;2023-02-17T04:40:19;2.67;;;1.60;;
35971;SDS011;22052;0.000;0.000;2023-02-17T04:42:46;2.47;;;1.50;;
35971;SDS011;22052;0.000;0.000;2023-02-17T04:45:12;3.78;;;1.92;;
35971;SDS011;22052;0.000;0.000;2023-02-17T04:47:38;4.63;;;1.67;;
35971;SDS011;22052;0.000;0.000;2023-02-17T04:50:06;3.08;;;1.67;;
35971;SDS011;22052;0.000;0.000;2023-02-17T04:52:32;4.07;;;1.63;;
35971;SDS011;22052;0.000;0.000;2023-02-17T04:54:59;2.75;;;1.70;;
35971;SDS011;22052;0.000;0.000;2023-02-17T04:57:25;2.53;;;1.70;;
35971;SDS011;22052;0.000;0.000;2023-02-17T04:59:52;4.40;;;1.98;;
35971;SDS011;22052;0.000;0.000;2023-02-17T05:02:18;4.68;;;1.75;;
35971;SDS011;22052;0.000;0.000;2023-02-17T05:04:44;2.63;;;1.60;;
35971;SDS011;22052;0.000;0.000;2023-02-17T05:07:10;3.17;;;1.77;;
35971;SDS011;22052;0.000;0.000;2023-02-17T05:09:37;3.33;;;1.73;;
35971;SDS011;22052;0.000;0.000;2023-02-17T05:12:03;3.53;;;1.70;;
35971;SDS011;22052;0.000;0.000;2023-02-17T05:14:30;2.88;;;1.73;;
35971;SDS011;22052;0.000;0.000;2023-02-17T05:16:56;3.67;;;1.63;;
35971;SDS011;22052;0.000;0.000;2023-02-17T05:19:22;3.75;;;1.67;;
35971;SDS011;22052;0.000;0.000;2023-02-17T05:21:48;4.20;;;1.80;;
35971;SDS011;22052;0.000;0.000;2023-02-17T05:24:15;4.35;;;1.80;;
35971;SDS011;22052;0.000;0.000;2023-02-17T05:26:41;3.05;;;1.60;;
35971;SDS011;22052;0.000;0.000;2023-02-17T05:29:08;2.60;;;1.80;;
35971;SDS011;22052;0.000;0.000;2023-02-17T05:31:34;3.33;;;1.80;;
35971;SDS011;22052;0.000;0.000;2023-02-17T05:34:00;2.97;;;1.70;;
35971;SDS011;22052;0.000;0.000;2023-02-17T05:36:26;3.13;;;1.70;;
35971;SDS011;22052;0.000;0.000;2023-02-17T05:38:53;4.13;;;1.60;;
35971;SDS011;22052;0.000;0.000;2023-02-17T05:41:19;3.17;;;1.70;;
35971;SDS011;22052;0.000;0.000;2023-02-17T05:43:45;2.58;;;1.67;;
35971;SDS011;22052;0.000;0.000;2023-02-17T05:46:12;3.25;;;1.65;;
35971;SDS011;22052;0.000;0.000;2023-02-17T05:48:39;3.13;;;1.60;;
35971;SDS011;22052;0.000;0.000;2023-02-17T05:51:05;4.50;;;1.50;;
35971;SDS011;22052;0.000;0.000;2023-02-17T05:53:32;3.88;;;1.80;;
35971;SDS011;22052;0.000;0.000;2023-02-17T05:55:58;2.60;;;1.63;;
35971;SDS011;22052;0.000;0.000;2023-02-17T05:58:24;4.07;;;1.80;;
35971;SDS011;22052;0.000;0.000;2023-02-17T06:00:51;3.67;;;1.80;;
35971;SDS011;22052;0.000;0.000;2023-02-17T06:03:17;4.38;;;1.73;;
35971;SDS011;22052;0.000;0.000;2023-02-17T06:05:44;6.07;;;1.65;;
35971;SDS011;22052;0.000;0.000;2023-02-17T06:08:10;3.83;;;1.90;;
35971;SDS011;22052;0.000;0.000;2023-02-17T06:10:36;6.05;;;1.90;;
35971;SDS011;22052;0.000;0.000;2023-02-17T06:13:03;4.35;;;1.75;;
35971;SDS011;22052;0.000;0.000;2023-02-17T06:15:29;6.80;;;2.00;;
35971;SDS011;22052;0.000;0.000;2023-02-17T06:17:55;5.57;;;1.73;;
35971;SDS011;22052;0.000;0.000;2023-02-17T06:20:21;6.13;;;1.75;;
35971;SDS011;22052;0.000;0.000;2023-02-17T06:22:48;6.32;;;2.10;;
35971;SDS011;22052;0.000;0.000;2023-02-17T06:25:14;5.47;;;1.50;;
35971;SDS011;22052;0.000;0.000;2023-02-17T06:27:41;7.60;;;1.80;;
35971;SDS011;22052;0.000;0.000;2023-02-17T06:30:08;5.20;;;1.70;;
35971;SDS011;22052;0.000;0.000;2023-02-17T06:32:35;3.92;;;1.70;;
35971;SDS011;22052;0.000;0.000;2023-02-17T06:35:01;6.22;;;1.90;;
35971;SDS011;22052;0.000;0.000;2023-02-17T06:37:27;5.82;;;2.10;;
35971;SDS011;22052;0.000;0.000;2023-02-17T06:39:54;4.28;;;2.08;;
35971;SDS011;22052;0.000;0.000;2023-02-17T06:42:20;6.20;;;1.70;;
35971;SDS011;22052;0.000;0.000;2023-02-17T06:44:47;6.75;;;2.15;;
35971;SDS011;22052;0.000;0.000;2023-02-17T06:47:14;6.85;;;2.05;;
35971;SDS011;22052;0.000;0.000;2023-02-17T06:49:40;7.75;;;2.08;;
35971;SDS011;22052;0.000;0.000;2023-02-17T06:52:06;7.10;;;1.83;;
35971;SDS011;22052;0.000;0.000;2023-02-17T06:54:33;6.07;;;1.90;;
35971;SDS011;22052;0.000;0.000;2023-02-17T06:56:59;7.65;;;1.85;;
35971;SDS011;22052;0.000;0.000;2023-02-17T06:59:26;6.45;;;1.85;;
35971;SDS011;22052;0.000;0.000;2023-02-17T07:01:52;5.05;;;1.90;;
35971;SDS011;22052;0.000;0.000;2023-02-17T07:04:19;6.00;;;1.98;;
35971;SDS011;22052;0.000;0.000;2023-02-17T07:06:45;5.20;;;1.73;;
35971;SDS011;22052;0.000;0.000;2023-02-17T07:09:12;6.88;;;2.00;;
35971;SDS011;22052;0.000;0.000;2023-02-17T07:11:38;7.03;;;2.22;;
35971;SDS011;22052;0.000;0.000;2023-02-17T07:14:06;6.10;;;2.03;;
35971;SDS011;22052;0.000;0.000;2023-02-17T07:16:32;6.70;;;2.33;;
35971;SDS011;22052;0.000;0.000;2023-02-17T07:22:35;5.22;;;1.80;;
35971;SDS011;22052;0.000;0.000;2023-02-17T07:25:41;7.27;;;2.20;;
35971;SDS011;22052;0.000;0.000;2023-02-17T07:28:32;13.93;;;2.15;;
35971;SDS011;22052;0.000;0.000;2023-02-17T07:34:11;6.15;;;2.30;;
35971;SDS011;22052;0.000;0.000;2023-02-17T07:36:38;7.93;;;2.00;;
35971;SDS011;22052;0.000;0.000;2023-02-17T07:39:05;6.60;;;2.05;;
35971;SDS011;22052;0.000;0.000;2023-02-17T07:41:35;5.75;;;1.90;;
35971;SDS011;22052;0.000;0.000;2023-02-17T07:44:02;7.25;;;1.95;;
35971;SDS011;22052;0.000;0.000;2023-02-17T07:46:29;5.43;;;1.90;;
35971;SDS011;22052;0.000;0.000;2023-02-17T07:48:56;6.93;;;1.80;;
35971;SDS011;22052;0.000;0.000;2023-02-17T07:51:24;5.43;;;2.20;;
35971;SDS011;22052;0.000;0.000;2023-02-17T07:54:00;5.45;;;1.67;;
35971;SDS011;22052;0.000;0.000;2023-02-17T07:56:30;7.68;;;1.95;;
35971;SDS011;22052;0.000;0.000;2023-02-17T07:58:58;5.45;;;2.15;;
35971;SDS011;22052;0.000;0.000;2023-02-17T08:01:34;6.25;;;1.90;;
35971;SDS011;22052;0.000;0.000;2023-02-17T08:07:18;6.40;;;2.22;;
35971;SDS011;22052;0.000;0.000;2023-02-17T09:28:59;6.15;;;2.25;;
35971;SDS011;22052;0.000;0.000;2023-02-17T09:31:26;12.43;;;2.45;;
35971;SDS011;22052;0.000;0.000;2023-02-17T09:33:53;8.73;;;2.70;;
35971;SDS011;22052;0.000;0.000;2023-02-17T09:36:28;6.30;;;2.50;;
35971;SDS011;22052;0.000;0.000;2023-02-17T09:39:08;7.47;;;2.42;;
35971;SDS011;22052;0.000;0.000;2023-02-17T10:48:28;10.68;;;2.85;;
35971;SDS011;22052;0.000;0.000;2023-02-17T10:53:43;11.40;;;2.65;;
35971;SDS011;22052;0.000;0.000;2023-02-17T10:56:34;8.88;;;2.60;;
35971;SDS011;22052;0.000;0.000;2023-02-17T10:59:07;9.32;;;2.70;;
35971;SDS011;22052;0.000;0.000;2023-02-17T11:01:38;9.63;;;2.50;;
35971;SDS011;22052;0.000;0.000;2023-02-17T11:38:14;6.15;;;2.15;;
35971;SDS011;22052;0.000;0.000;2023-02-17T11:41:10;8.15;;;2.78;;
35971;SDS011;22052;0.000;0.000;2023-02-17T11:44:04;7.75;;;2.60;;
35971;SDS011;22052;0.000;0.000;2023-02-17T11:47:08;10.43;;;2.60;;
35971;SDS011;22052;0.000;0.000;2023-02-17T11:49:53;11.23;;;2.95;;
35971;SDS011;22052;0.000;0.000;2023-02-17T12:03:50;8.75;;;2.55;;
35971;SDS011;22052;0.000;0.000;2023-02-17T12:08:52;7.57;;;2.50;;
35971;SDS011;22052;0.000;0.000;2023-02-17T12:27:32;5.90;;;2.38;;
35971;SDS011;22052;0.000;0.000;2023-02-17T12:35:09;9.27;;;3.13;;
35971;SDS011;22052;0.000;0.000;2023-02-17T12:37:54;7.50;;;2.30;;
35971;SDS011;22052;0.000;0.000;2023-02-17T12:40:36;7.45;;;2.60;;
35971;SDS011;22052;0.000;0.000;2023-02-17T12:43:48;5.05;;;2.50;;
35971;SDS011;22052;0.000;0.000;2023-02-17T12:46:28;6.93;;;2.47;;
35971;SDS011;22052;0.000;0.000;2023-02-17T12:49:16;7.15;;;2.65;;
35971;SDS011;22052;0.000;0.000;2023-02-17T12:51:51;9.68;;;2.70;;
35971;SDS011;22052;0.000;0.000;2023-02-17T12:54:29;7.18;;;2.38;;
35971;SDS011;22052;0.000;0.000;2023-02-17T12:57:11;8.15;;;2.47;;
35971;SDS011;22052;0.000;0.000;2023-02-17T13:00:11;7.45;;;2.63;;
35971;SDS011;22052;0.000;0.000;2023-02-17T13:03:02;10.88;;;2.60;;
35971;SDS011;22052;0.000;0.000;2023-02-17T13:05:45;8.77;;;2.40;;
35971;SDS011;22052;0.000;0.000;2023-02-17T13:08:15;11.43;;;2.90;;
35971;SDS011;22052;0.000;0.000;2023-02-17T13:10:46;9.85;;;2.63;;
35971;SDS011;22052;0.000;0.000;2023-02-17T13:13:46;10.20;;;2.72;;
35971;SDS011;22052;0.000;0.000;2023-02-17T13:16:44;7.25;;;2.70;;
35971;SDS011;22052;0.000;0.000;2023-02-17T13:23:25;11.40;;;2.72;;
35971;SDS011;22052;0.000;0.000;2023-02-17T13:26:00;18.58;;;2.90;;
35971;SDS011;22052;0.000;0.000;2023-02-17T13:28:35;11.23;;;3.17;;
35971;SDS011;22052;0.000;0.000;2023-02-17T13:31:19;11.57;;;3.30;;
35971;SDS011;22052;0.000;0.000;2023-02-17T13:33:47;12.65;;;2.92;;
35971;SDS011;22052;0.000;0.000;2023-02-17T13:36:19;7.90;;;2.97;;
35971;SDS011;22052;0.000;0.000;2023-02-17T13:41:53;13.85;;;3.15;;
35971;SDS011;22052;0.000;0.000;2023-02-17T13:44:39;12.15;;;2.88;;
35971;SDS011;22052;0.000;0.000;2023-02-17T13:49:38;13.55;;;3.10;;
35971;SDS011;22052;0.000;0.000;2023-02-17T13:52:16;13.07;;;3.28;;
35971;SDS011;22052;0.000;0.000;2023-02-17T13:54:58;7.25;;;2.60;;
35971;SDS011;22052;0.000;0.000;2023-02-17T14:00:02;9.35;;;3.08;;
35971;SDS011;22052;0.000;0.000;2023-02-17T14:02:29;8.30;;;3.15;;
35971;SDS011;22052;0.000;0.000;2023-02-17T14:04:57;12.40;;;3.15;;
35971;SDS011;22052;0.000;0.000;2023-02-17T14:07:24;8.90;;;2.80;;
35971;SDS011;22052;0.000;0.000;2023-02-17T14:09:52;10.48;;;2.78;;
35971;SDS011;22052;0.000;0.000;2023-02-17T14:12:22;11.00;;;2.80;;
35971;SDS011;22052;0.000;0.000;2023-02-17T14:14:50;13.60;;;2.97;;
35971;SDS011;22052;0.000;0.000;2023-02-17T14:17:31;10.40;;;2.78;;
35971;SDS011;22052;0.000;0.000;2023-02-17T14:19:59;11.17;;;3.27;;
35971;SDS011;22052;0.000;0.000;2023-02-17T14:22:29;12.38;;;3.15;;
35971;SDS011;22052;0.000;0.000;2023-02-17T14:25:24;7.80;;;2.75;;
35971;SDS011;22052;0.000;0.000;2023-02-17T14:27:43;13.23;;;3.38;;
35971;SDS011;22052;0.000;0.000;2023-02-17T14:30:14;10.98;;;3.08;;
35971;SDS011;22052;0.000;0.000;2023-02-17T14:32:40;10.05;;;2.53;;
35971;SDS011;22052;0.000;0.000;2023-02-17T14:35:08;9.38;;;3.00;;
35971;SDS011;22052;0.000;0.000;2023-02-17T14:37:37;11.20;;;3.00;;
35971;SDS011;22052;0.000;0.000;2023-02-17T14:40:04;10.05;;;3.20;;
35971;SDS011;22052;0.000;0.000;2023-02-17T14:42:31;9.38;;;3.03;;
35971;SDS011;22052;0.000;0.000;2023-02-17T14:44:58;10.98;;;3.20;;
35971;SDS011;22052;0.000;0.000;2023-02-17T14:47:24;12.63;;;2.97;;
35971;SDS011;22052;0.000;0.000;2023-02-17T14:49:51;8.82;;;3.05;;
35971;SDS011;22052;0.000;0.000;2023-02-17T14:52:21;11.70;;;3.25;;
35971;SDS011;22052;0.000;0.000;2023-02-17T14:54:48;9.48;;;3.10;;
35971;SDS011;22052;0.000;0.000;2023-02-17T14:57:15;12.95;;;2.95;;
35971;SDS011;22052;0.000;0.000;2023-02-17T14:59:42;13.15;;;3.63;;
35971;SDS011;22052;0.000;0.000;2023-02-17T15:02:15;9.52;;;3.50;;
35971;SDS011;22052;0.000;0.000;2023-02-17T15:04:42;11.93;;;3.13;;
35971;SDS011;22052;0.000;0.000;2023-02-17T15:07:11;15.60;;;3.70;;
35971;SDS011;22052;0.000;0.000;2023-02-17T15:09:37;8.75;;;3.17;;
35971;SDS011;22052;0.000;0.000;2023-02-17T15:12:08;13.35;;;3.22;;
35971;SDS011;22052;0.000;0.000;2023-02-17T15:14:37;11.75;;;3.40;;
35971;SDS011;22052;0.000;0.000;2023-02-17T15:17:04;15.35;;;3.47;;
35971;SDS011;22052;0.000;0.000;2023-02-17T15:19:30;12.63;;;3.25;;
35971;SDS011;22052;0.000;0.000;2023-02-17T15:21:56;12.65;;;3.42;;
35971;SDS011;22052;0.000;0.000;2023-02-17T15:24:25;11.23;;;3.33;;
35971;SDS011;22052;0.000;0.000;2023-02-17T15:26:53;10.38;;;3.03;;
35971;SDS011;22052;0.000;0.000;2023-02-17T15:29:20;10.77;;;3.53;;
35971;SDS011;22052;0.000;0.000;2023-02-17T15:31:47;11.07;;;3.20;;
35971;SDS011;22052;0.000;0.000;2023-02-17T15:34:15;11.68;;;3.05;;
35971;SDS011;22052;0.000;0.000;2023-02-17T15:36:42;12.65;;;3.38;;
35971;SDS011;22052;0.000;0.000;2023-02-17T15:39:09;11.35;;;3.15;;
35971;SDS011;22052;0.000;0.000;2023-02-17T15:41:36;13.75;;;3.70;;
35971;SDS011;22052;0.000;0.000;2023-02-17T15:44:04;17.90;;;3.67;;
35971;SDS011;22052;0.000;0.000;2023-02-17T15:46:31;11.90;;;3.40;;
35971;SDS011;22052;0.000;0.000;2023-02-17T15:48:58;13.95;;;3.72;;
35971;SDS011;22052;0.000;0.000;2023-02-17T15:51:24;15.38;;;3.40;;
35971;SDS011;22052;0.000;0.000;2023-02-17T15:53:51;17.23;;;3.38;;
35971;SDS011;22052;0.000;0.000;2023-02-17T15:56:18;14.35;;;3.17;;
35971;SDS011;22052;0.000;0.000;2023-02-17T15:58:46;11.55;;;3.03;;
35971;SDS011;22052;0.000;0.000;2023-02-17T16:03:45;11.30;;;3.13;;
35971;SDS011;22052;0.000;0.000;2023-02-17T16:06:11;9.70;;;2.95;;
35971;SDS011;22052;0.000;0.000;2023-02-17T16:08:37;9.00;;;3.15;;
35971;SDS011;22052;0.000;0.000;2023-02-17T16:11:04;14.90;;;3.38;;
35971;SDS011;22052;0.000;0.000;2023-02-17T16:13:30;10.27;;;3.50;;
35971;SDS011;22052;0.000;0.000;2023-02-17T16:15:57;13.40;;;3.47;;
35971;SDS011;22052;0.000;0.000;2023-02-17T16:18:23;10.18;;;3.30;;
35971;SDS011;22052;0.000;0.000;2023-02-17T16:20:50;16.58;;;3.45;;
35971;SDS011;22052;0.000;0.000;2023-02-17T16:23:16;11.20;;;3.20;;
35971;SDS011;22052;0.000;0.000;2023-02-17T16:25:43;10.82;;;3.17;;
35971;SDS011;22052;0.000;0.000;2023-02-17T16:28:16;9.15;;;2.60;;
35971;SDS011;22052;0.000;0.000;2023-02-17T16:30:43;14.23;;;3.35;;
35971;SDS011;22052;0.000;0.000;2023-02-17T16:33:10;12.70;;;3.70;;
35971;SDS011;22052;0.000;0.000;2023-02-17T16:35:37;14.52;;;3.22;;
35971;SDS011;22052;0.000;0.000;2023-02-17T16:40:30;11.15;;;3.70;;
35971;SDS011;22052;0.000;0.000;2023-02-17T16:42:57;12.35;;;3.50;;
35971;SDS011;22052;0.000;0.000;2023-02-17T16:45:24;11.35;;;3.25;;
35971;SDS011;22052;0.000;0.000;2023-02-17T16:47:52;13.07;;;3.85;;
35971;SDS011;22052;0.000;0.000;2023-02-17T16:52:52;12.67;;;3.33;;
35971;SDS011;22052;0.000;0.000;2023-02-17T16:55:19;11.02;;;2.95;;
35971;SDS011;22052;0.000;0.000;2023-02-17T16:57:45;10.73;;;3.33;;
35971;SDS011;22052;0.000;0.000;2023-02-17T17:00:13;13.02;;;3.92;;
35971;SDS011;22052;0.000;0.000;2023-02-17T17:02:41;17.63;;;3.83;;
35971;SDS011;22052;0.000;0.000;2023-02-17T17:05:07;15.55;;;4.05;;
35971;SDS011;22052;0.000;0.000;2023-02-17T17:07:34;9.75;;;3.42;;
35971;SDS011;22052;0.000;0.000;2023-02-17T17:10:01;13.30;;;3.67;;
35971;SDS011;22052;0.000;0.000;2023-02-17T17:12:28;11.15;;;3.53;;
35971;SDS011;22052;0.000;0.000;2023-02-17T17:14:54;16.60;;;4.28;;
35971;SDS011;22052;0.000;0.000;2023-02-17T17:17:21;9.50;;;2.92;;
35971;SDS011;22052;0.000;0.000;2023-02-17T17:19:47;10.10;;;3.30;;
35971;SDS011;22052;0.000;0.000;2023-02-17T17:22:13;13.73;;;3.22;;
35971;SDS011;22052;0.000;0.000;2023-02-17T17:24:40;11.85;;;3.55;;
35971;SDS011;22052;0.000;0.000;2023-02-17T17:27:06;13.20;;;3.80;;
35971;SDS011;22052;0.000;0.000;2023-02-17T17:29:32;11.00;;;3.35;;
35971;SDS011;22052;0.000;0.000;2023-02-17T17:31:58;14.15;;;3.38;;
35971;SDS011;22052;0.000;0.000;2023-02-17T17:34:25;14.30;;;3.35;;
35971;SDS011;22052;0.000;0.000;2023-02-17T17:36:51;13.52;;;3.13;;
35971;SDS011;22052;0.000;0.000;2023-02-17T17:39:18;13.30;;;3.40;;
35971;SDS011;22052;0.000;0.000;2023-02-17T17:41:46;10.52;;;3.53;;
35971;SDS011;22052;0.000;0.000;2023-02-17T17:44:12;10.80;;;3.47;;
35971;SDS011;22052;0.000;0.000;2023-02-17T17:46:39;15.23;;;4.18;;
35971;SDS011;22052;0.000;0.000;2023-02-17T17:49:05;17.02;;;3.45;;
35971;SDS011;22052;0.000;0.000;2023-02-17T17:51:35;12.13;;;3.20;;
35971;SDS011;22052;0.000;0.000;2023-02-17T17:54:02;16.67;;;3.50;;
35971;SDS011;22052;0.000;0.000;2023-02-17T17:56:36;13.43;;;4.20;;
35971;SDS011;22052;0.000;0.000;2023-02-17T17:59:03;12.70;;;3.78;;
35971;SDS011;22052;0.000;0.000;2023-02-17T18:01:30;13.57;;;4.20;;
35971;SDS011;22052;0.000;0.000;2023-02-17T18:03:56;10.50;;;3.90;;
35971;SDS011;22052;0.000;0.000;2023-02-17T18:06:25;13.32;;;3.60;;
35971;SDS011;22052;0.000;0.000;2023-02-17T18:08:52;14.02;;;3.20;;
35971;SDS011;22052;0.000;0.000;2023-02-17T18:11:19;16.73;;;3.88;;
35971;SDS011;22052;0.000;0.000;2023-02-17T18:13:47;18.42;;;3.67;;
35971;SDS011;22052;0.000;0.000;2023-02-17T18:16:14;12.65;;;3.55;;
35971;SDS011;22052;0.000;0.000;2023-02-17T18:18:41;14.35;;;3.80;;
35971;SDS011;22052;0.000;0.000;2023-02-17T18:21:08;10.30;;;3.30;;
35971;SDS011;22052;0.000;0.000;2023-02-17T18:23:34;12.57;;;3.67;;
35971;SDS011;22052;0.000;0.000;2023-02-17T18:26:01;10.77;;;3.22;;
35971;SDS011;22052;0.000;0.000;2023-02-17T18:28:27;11.02;;;3.38;;
35971;SDS011;22052;0.000;0.000;2023-02-17T18:30:53;8.18;;;3.28;;
35971;SDS011;22052;0.000;0.000;2023-02-17T18:33:21;16.67;;;3.95;;
35971;SDS011;22052;0.000;0.000;2023-02-17T18:35:47;10.60;;;3.47;;
35971;SDS011;22052;0.000;0.000;2023-02-17T18:38:13;10.20;;;3.95;;
35971;SDS011;22052;0.000;0.000;2023-02-17T18:40:39;11.80;;;3.72;;
35971;SDS011;22052;0.000;0.000;2023-02-17T18:43:06;11.55;;;3.58;;
35971;SDS011;22052;0.000;0.000;2023-02-17T18:45:33;15.70;;;3.67;;
35971;SDS011;22052;0.000;0.000;2023-02-17T18:47:59;11.10;;;3.63;;
35971;SDS011;22052;0.000;0.000;2023-02-17T18:50:25;11.45;;;3.85;;
35971;SDS011;22052;0.000;0.000;2023-02-17T18:52:57;12.77;;;3.72;;
35971;SDS011;22052;0.000;0.000;2023-02-17T18:55:23;10.32;;;3.60;;
35971;SDS011;22052;0.000;0.000;2023-02-17T18:57:50;9.43;;;3.17;;
35971;SDS011;22052;0.000;0.000;2023-02-17T19:00:16;9.43;;;3.60;;
35971;SDS011;22052;0.000;0.000;2023-02-17T19:02:42;10.63;;;3.35;;
35971;SDS011;22052;0.000;0.000;2023-02-17T19:05:09;9.52;;;3.38;;
35971;SDS011;22052;0.000;0.000;2023-02-17T19:07:35;11.88;;;3.38;;
35971;SDS011;22052;0.000;0.000;2023-02-17T19:10:02;9.75;;;3.20;;
35971;SDS011;22052;0.000;0.000;2023-02-17T19:12:28;11.77;;;3.42;;
35971;SDS011;22052;0.000;0.000;2023-02-17T19:14:55;10.00;;;3.10;;
35971;SDS011;22052;0.000;0.000;2023-02-17T19:17:22;11.05;;;3.22;;
35971;SDS011;22052;0.000;0.000;2023-02-17T19:19:48;10.38;;;2.80;;
35971;SDS011;22052;0.000;0.000;2023-02-17T19:22:15;13.77;;;3.47;;
35971;SDS011;22052;0.000;0.000;2023-02-17T19:24:41;9.00;;;3.30;;
35971;SDS011;22052;0.000;0.000;2023-02-17T19:27:08;7.88;;;3.22;;
35971;SDS011;22052;0.000;0.000;2023-02-17T19:29:34;10.85;;;3.10;;
35971;SDS011;22052;0.000;0.000;2023-02-17T19:32:01;9.27;;;3.22;;
35971;SDS011;22052;0.000;0.000;2023-02-17T19:34:27;15.25;;;3.65;;
35971;SDS011;22052;0.000;0.000;2023-02-17T19:36:54;12.75;;;3.40;;